Terminal Aerodrome Forecast
Issued by NWS Mobile, AL

Home | Current Version | Previous Version | Text Only | Print | Product List | Glossary On
Versions: 1 2 3 4 5 6 7 8 9 10 11 12 13 14 15 16 17 18 19 20 21 22 23 24 25 26 27 28 29 30
000
FTUS44 KMOB 231700 RRA
TAFPNS
TAF
KPNS 231754Z 2318/2418 27011G28KT P6SM -RA FEW018 BKN060 OVC070
     FM232200 20011G20KT P6SM BKN040
     FM240600 22010KT 3SM BR OVC015
     FM241500 30011KT P6SM OVC250=

USA.gov is the U.S. government's official web portal to all federal, state and local government web resources and services.